Flight Track Log - Related Links

Times and Time Zones

All times are in EDT time to prevent confusion due to time zone crossing. See the DAL268 flight status page for this flight to view local times or setup timezone preferences in your user account.

Time Position Orientation Groundspeed Altitude Reporting Facility
EDT Latitude Longitude Course Direction KTS MPH feet Rate Location/Type
Tue 12:08:29 AM 40.6360 -73.7760 North 2 2  Level FlightAware ADS-B
Tue 12:09:54 AM 40.6360 -73.7750 90° East 2 2 31 Level FlightAware ADS-B
Tue 12:10:39 AM 40.6350 -73.7750 180° South 2 2 33 Level FlightAware ADS-B
Tue 12:13:00 AM 40.5017 -73.3866 123° Southeast  Level FlightAware Approximate
Tue 12:13:37 AM 40.6350 -73.7740 123° Southeast 2 2  Level FlightAware ADS-B
Tue 12:16:00 AM 40.5000 -73.3811 90° East  Level FlightAware Approximate
Tue 12:16:18 AM 40.6360 -73.7740 90° East 2 2  Level FlightAware ADS-B
Tue 12:17:18 AM 40.6350 -73.7740 180° South 47 Level FlightAware ADS-B
Tue 12:19:00 AM 40.5426 -73.4945 114° Southeast  Level FlightAware Approximate
Tue 12:20:00 AM 40.4864 -73.3260 114° Southeast  Level FlightAware Approximate
Tue 12:21:00 AM 40.4377 -73.1546 119° Southeast  Level FlightAware Approximate
Tue 12:22:00 AM 40.3833 -72.9865 90° East  Level FlightAware Approximate
Tue 12:23:00 AM 40.4189 -72.8077 72° East  Level FlightAware Approximate
Tue 12:23:59 AM 40.6330 -73.7740 180° South 15 17  Level FlightAware ADS-B
Tue 12:25:09 AM 40.6310 -73.7740 180° South 14 16 95 Level FlightAware ADS-B
Tue 12:26:10 AM 40.6310 -73.7750 270° West 19 22 113 Level FlightAware ADS-B
Tue 12:26:32 AM 40.6300 -73.7740 143° Southeast 18 21 135 Level FlightAware ADS-B
Tue 12:27:21 AM 40.6290 -73.7720 123° Southeast 24 28 145 Level FlightAware ADS-B
Tue 12:27:41 AM 40.6290 -73.7710 90° East 26 30 175 Level FlightAware ADS-B
Tue 12:28:26 AM 40.6270 -73.7680 131° Southeast 32 37 191 Level FlightAware ADS-B
Tue 12:29:06 AM 40.6260 -73.7680 180° South 20 23 240 Level FlightAware ADS-B
Tue 12:29:49 AM 40.6250 -73.7690 217° Southwest 17 20 311 Level FlightAware ADS-B
Tue 12:30:31 AM 40.6290 -73.7770 303° West 100 115 457 Level FlightAware ADS-B
Tue 12:31:21 AM 40.6490 -73.8240 299° West 182 209 700 889 Climbing FlightAware ADS-B
Tue 12:31:25 AM 40.6490 -73.8290 270° West 184 212 800 1,556 Climbing FlightAware ADS-B
Tue 12:31:48 AM 40.6400 -73.8500 241° Southwest 193 222 1,400 1,622 Climbing FlightAware ADS-B
Tue 12:32:02 AM 40.6290 -73.8590 212° Southwest 195 224 1,800 1,946 Climbing FlightAware ADS-B
Tue 12:32:25 AM 40.6100 -73.8680 200° South 200 230 2,600 1,698 Climbing FlightAware ADS-B
Tue 12:32:55 AM 40.5850 -73.8500 151° Southeast 222 255 3,300 1,435 Climbing FlightAware ADS-B
Tue 12:33:11 AM 40.5800 -73.8290 107° East 229 264 3,700 1,227 Climbing FlightAware ADS-B
Tue 12:33:39 AM 40.5850 -73.7880 81° East 254 292 4,200 1,053 Climbing FlightAware ADS-B
Tue 12:34:08 AM 40.5930 -73.7430 77° East 279 321 4,700 1,241 Climbing FlightAware ADS-B
Tue 12:34:37 AM 40.6010 -73.6910 79° East 302 348 5,400 1,610 Climbing FlightAware ADS-B
Tue 12:34:49 AM 40.6020 -73.6686 87° East 311 358 5,800 2,118 Climbing FlightAware ADS-B
Tue 12:34:54 AM 40.6013 -73.6605 96° East 312 359 6,000 2,182 Climbing FlightAware ADS-B
Tue 12:35:00 AM 40.5994 -73.6487 102° East 315 362 6,200 2,500 Climbing FlightAware ADS-B
Tue 12:35:06 AM 40.5966 -73.6380 109° East 317 365 6,500 2,727 Climbing FlightAware ADS-B
Tue 12:35:22 AM 40.5869 -73.6098 114° Southeast 319 367 7,200 2,903 Climbing FlightAware ADS-B
Tue 12:35:37 AM 40.5779 -73.5829 114° Southeast 318 366 8,000 2,710 Climbing FlightAware ADS-B
Tue 12:35:53 AM 40.5683 -73.5549 114° Southeast 324 373 8,600 2,323 Climbing FlightAware ADS-B
Tue 12:36:08 AM 40.5586 -73.5261 114° Southeast 328 377 9,200 2,400 Climbing FlightAware ADS-B
Tue 12:36:23 AM 40.5499 -73.4985 113° Southeast 331 381 9,800 2,348 Climbing FlightAware ADS-B
Tue 12:36:54 AM 40.5318 -73.4399 112° Southeast 340 391 11,000 1,655 Climbing FlightAware ADS-B
Tue 12:37:21 AM 40.5148 -73.3869 113° Southeast 371 427 11,400 1,138 Climbing FlightAware ADS-B
Tue 12:37:52 AM 40.4930 -73.3193 113° Southeast 396 456 12,100 1,355 Climbing FlightAware ADS-B
Tue 12:38:23 AM 40.4714 -73.2500 112° Southeast 417 480 12,800 1,672 Climbing FlightAware ADS-B
Tue 12:38:53 AM 40.4485 -73.1782 113° Southeast 430 495 13,800 2,077 Climbing FlightAware ADS-B
Tue 12:39:41 AM 40.4100 -73.0595 113° Southeast 434 499 15,500 2,100 Climbing FlightAware ADS-B
Tue 12:39:53 AM 40.4023 -73.0298 109° East 447 514 15,900 2,000 Climbing FlightAware ADS-B
Tue 12:40:02 AM 40.3996 -73.0061 99° East 450 518 16,200 2,000 Climbing FlightAware ADS-B
Tue 12:40:11 AM 40.3997 -72.9803 90° East 452 520 16,500 1,800 Climbing FlightAware ADS-B
Tue 12:40:22 AM 40.4032 -72.9512 81° East 456 525 16,800 1,636 Climbing FlightAware ADS-B
Tue 12:40:33 AM 40.4110 -72.9227 70° East 458 527 17,100 1,714 Climbing FlightAware ADS-B
Tue 12:40:43 AM 40.4218 -72.8987 59° Northeast 459 528 17,400 2,000 Climbing FlightAware ADS-B
Tue 12:41:15 AM 40.4620 -72.8255 54° Northeast 464 534 18,500 2,000 Climbing FlightAware ADS-B
Tue 12:41:46 AM 40.5021 -72.7549 53° Northeast 465 535 19,500 1,839 Climbing FlightAware ADS-B
Tue 12:42:17 AM 40.5425 -72.6835 53° Northeast 476 548 20,400 1,742 Climbing FlightAware ADS-B
Tue 12:42:48 AM 40.5821 -72.6121 54° Northeast 480 552 21,300 1,574 Climbing FlightAware ADS-B
Tue 12:43:18 AM 40.6221 -72.5396 54° Northeast 486 559 22,000 1,400 Climbing FlightAware ADS-B
Tue 12:43:48 AM 40.6620 -72.4667 54° Northeast 493 567 22,700 1,378 Climbing FlightAware ADS-B
Tue 12:44:32 AM 40.7210 -72.3585 54° Northeast 501 577 23,700 1,407 Climbing FlightAware ADS-B
Tue 12:45:09 AM 40.7709 -72.2665 54° Northeast 506 582 24,600 1,256 Climbing FlightAware ADS-B
Tue 12:45:58 AM 40.8383 -72.1423 54° Northeast 517 595 25,500 1,200 Climbing FlightAware ADS-B
Tue 12:46:29 AM 40.8826 -72.0604 54° Northeast 523 602 26,200 1,258 Climbing FlightAware ADS-B
Tue 12:47:00 AM 40.9257 -71.9799 55° Northeast 526 605 26,800 1,149 Climbing FlightAware ADS-B
Tue 12:48:03 AM 41.0130 -71.8170 55° Northeast 533 613 28,000 706 Climbing FlightAware ADS-B
Tue 12:48:42 AM 41.0610 -71.7300 54° Northeast 533 613 28,000  Level FlightAware ADS-B
Tue 12:49:34 AM 41.1250 -71.6130 54° Northeast 533 613 28,000 1,780 Level FlightAware ADS-B
Tue 12:50:13 AM 41.2016 -71.4669 55° Northeast 533 613 30,700 2,348 Climbing FlightAware ADS-B
Tue 12:51:06 AM 41.2781 -71.3266 54° Northeast 536 617 31,600 1,009 Climbing FlightAware ADS-B
Tue 12:52:00 AM 41.3540 -71.1860 54° Northeast 534 615 32,500 848 Climbing FlightAware ADS-B
Tue 12:52:45 AM 41.4180 -71.0660 55° Northeast 531 611 33,000 353 Climbing FlightAware ADS-B
Tue 12:53:25 AM 41.4730 -70.9610 55° Northeast 524 603 33,000  Level FlightAware ADS-B
Tue 12:54:10 AM 41.5360 -70.8400 55° Northeast 522 601 33,000  Level FlightAware ADS-B
Tue 12:54:50 AM 41.5900 -70.7370 55° Northeast 522 601 33,000  Level FlightAware ADS-B
Tue 12:55:45 AM 41.6650 -70.5940 55° Northeast 522 601 33,000  Level FlightAware ADS-B
Tue 12:56:48 AM 41.7460 -70.4340 56° Northeast 525 604 33,000  Level FlightAware ADS-B
Tue 12:57:26 AM 41.8080 -70.3120 56° Northeast 529 609 33,000  Level FlightAware ADS-B
Tue 12:58:07 AM 41.8630 -70.2020 56° Northeast 532 612 33,000  Level FlightAware ADS-B
Tue 12:58:50 AM 41.9170 -70.0910 57° Northeast 526 605 33,000  Level FlightAware ADS-B
Tue 12:59:46 AM 41.9970 -69.9300 56° Northeast 519 597 33,000  Level FlightAware ADS-B
Tue 01:00:41 AM 42.0700 -69.7830 56° Northeast 512 589 33,000  Level FlightAware ADS-B
Tue 01:01:31 AM 42.1360 -69.6490 56° Northeast 508 585 33,000  Level FlightAware ADS-B
Tue 01:02:01 AM 42.1760 -69.5690 56° Northeast 505 581 33,000  Level FlightAware ADS-B
Tue 01:02:41 AM 42.2270 -69.4620 57° Northeast 504 580 33,000  Level FlightAware ADS-B
Tue 01:03:21 AM 42.2790 -69.3570 56° Northeast 504 580 33,000  Level FlightAware ADS-B
Tue 01:04:01 AM 42.3310 -69.2490 57° Northeast 509 586 33,000  Level FlightAware ADS-B
Tue 01:04:46 AM 42.3890 -69.1300 57° Northeast 508 585 33,000  Level FlightAware ADS-B
Tue 01:05:26 AM 42.4400 -69.0240 57° Northeast 509 586 33,000  Level FlightAware ADS-B
Tue 01:06:29 AM 42.5120 -68.8750 57° Northeast 509 586 33,000  Level FlightAware ADS-B
Tue 01:07:03 AM 42.5490 -68.7970 57° Northeast 509 586 33,000  Level FlightAware ADS-B
Tue 01:07:51 AM 42.6010 -68.6880 57° Northeast 509 586 33,000  Level FlightAware ADS-B
Tue 01:08:25 AM 42.6380 -68.6100 57° Northeast 509 586 33,000  Level FlightAware ADS-B
Tue 01:09:11 AM 42.6880 -68.5050 57° Northeast 509 586 33,000  Level FlightAware ADS-B
Tue 01:10:12 AM 42.7550 -68.3660 57° Northeast 509 586 33,000  Level FlightAware ADS-B
Tue 01:11:22 AM 42.8900 -68.0740 58° Northeast 517 595 33,000  Level FlightAware ADS-B
Tue 01:12:09 AM 42.9400 -67.9630 58° Northeast 517 595 33,000  Level FlightAware ADS-B
Tue 01:12:57 AM 42.9920 -67.8500 58° Northeast 517 595 33,000  Level FlightAware ADS-B
Tue 01:13:50 AM 43.0880 -67.6470 57° Northeast 522 601 33,000  Level FlightAware ADS-B
Tue 01:14:30 AM 43.1330 -67.5530 57° Northeast 522 601 33,000  Level FlightAware ADS-B
Tue 01:15:06 AM 43.1730 -67.4680 57° Northeast 522 601 33,000  Level FlightAware ADS-B
Tue 01:15:54 AM 43.2270 -67.3540 57° Northeast 522 601 33,000  Level FlightAware ADS-B
Tue 01:16:31 AM 43.2680 -67.2670 57° Northeast 522 601 33,000  Level FlightAware ADS-B
Tue 01:17:19 AM 43.3220 -67.1530 57° Northeast 522 601 33,000  Level FlightAware ADS-B
Tue 01:18:18 AM 43.3880 -67.0130 57° Northeast 522 601 33,000  Level FlightAware ADS-B
Tue 01:18:54 AM 43.4280 -66.9280 57° Northeast 522 601 33,000  Level FlightAware ADS-B
Tue 01:19:42 AM 43.4820 -66.8140 57° Northeast 522 601 33,000  Level FlightAware ADS-B
Tue 01:20:18 AM 43.5220 -66.7290 57° Northeast 522 601 33,000  Level FlightAware ADS-B
Tue 01:21:06 AM 43.5750 -66.6150 57° Northeast 522 601 33,000  Level FlightAware ADS-B
Tue 01:21:41 AM 43.6150 -66.5320 56° Northeast 522 601 33,000  Level FlightAware ADS-B
Tue 01:22:28 AM 43.6670 -66.4200 57° Northeast 522 601 33,000  Level FlightAware ADS-B
Tue 01:23:05 AM 43.7080 -66.3320 57° Northeast 522 601 33,000  Level FlightAware ADS-B
Tue 01:25:32 AM 43.9820 -65.6150 62° Northeast 531 611 33,000  Level FlightAware ADS-B
Tue 01:26:13 AM 44.0270 -65.5110 59° Northeast 531 611 33,000  Level FlightAware ADS-B
Tue 01:26:52 AM 44.0790 -65.3870 60° Northeast 527 606 33,000  Level FlightAware ADS-B
Tue 01:27:34 AM 44.1320 -65.2630 59° Northeast 524 603 33,000  Level FlightAware ADS-B
Tue 01:28:14 AM 44.1820 -65.1440 60° Northeast 525 604 33,000  Level FlightAware ADS-B
Tue 01:29:01 AM 44.2400 -65.0060 60° Northeast 526 605 33,000  Level FlightAware ADS-B
Tue 01:29:37 AM 44.2830 -64.9020 60° Northeast 527 606 33,000  Level FlightAware ADS-B
Tue 01:30:23 AM 44.3410 -64.7630 60° Northeast 529 609 33,000  Level FlightAware ADS-B
Tue 01:31:05 AM 44.3910 -64.6430 60° Northeast 531 611 33,000  Level FlightAware ADS-B
Tue 01:31:49 AM 44.4470 -64.5080 60° Northeast 534 615 33,000  Level FlightAware ADS-B
Tue 01:32:29 AM 44.4960 -64.3880 60° Northeast 536 617 33,000  Level FlightAware ADS-B
Tue 01:33:09 AM 44.5430 -64.2720 60° Northeast 538 619 33,000  Level FlightAware ADS-B
Tue 01:33:54 AM 44.6010 -64.1290 60° Northeast 538 619 33,000  Level FlightAware ADS-B
Tue 01:34:35 AM 44.6500 -64.0060 61° Northeast 537 618 33,000  Level FlightAware ADS-B
Tue 01:35:19 AM 44.7040 -63.8730 60° Northeast 538 619 33,000  Level FlightAware ADS-B
Tue 01:35:55 AM 44.7480 -63.7640 60° Northeast 538 619 33,000  Level FlightAware ADS-B
Tue 01:36:44 AM 44.8030 -63.6270 60° Northeast 539 620 33,000  Level FlightAware ADS-B
Tue 01:37:24 AM 44.8540 -63.4960 61° Northeast 537 618 33,000  Level FlightAware ADS-B
Tue 01:38:00 AM 44.8970 -63.3900 60° Northeast 537 618 33,000  Level FlightAware ADS-B
Tue 01:38:49 AM 44.9470 -63.2620 61° Northeast 537 618 33,000  Level FlightAware ADS-B
Tue 01:39:27 AM 44.9860 -63.1630 61° Northeast 537 618 33,000  Level FlightAware ADS-B
Tue 01:40:15 AM 45.0350 -63.0370 61° Northeast 537 618 33,000  Level FlightAware ADS-B
Tue 01:40:49 AM 45.0700 -62.9480 61° Northeast 537 618 33,000  Level FlightAware ADS-B
Tue 01:41:37 AM 45.1190 -62.8230 61° Northeast 537 618 33,000  Level FlightAware ADS-B
Tue 01:42:13 AM 45.1560 -62.7290 61° Northeast 537 618 33,000  Level FlightAware ADS-B
Tue 01:43:01 AM 45.2050 -62.6030 61° Northeast 537 618 33,000  Level FlightAware ADS-B
Tue 01:43:38 AM 45.2430 -62.5060 61° Northeast 537 618 33,000  Level FlightAware ADS-B
Tue 01:44:27 AM 45.2930 -62.3770 61° Northeast 537 618 33,000  Level FlightAware ADS-B
Tue 01:45:04 AM 45.3310 -62.2800 61° Northeast 537 618 33,000  Level FlightAware ADS-B
Tue 01:45:40 AM 45.3670 -62.1850 62° Northeast 537 618 33,000  Level FlightAware ADS-B
Tue 01:46:29 AM 45.4180 -62.0560 61° Northeast 537 618 33,000  Level FlightAware ADS-B
Tue 01:47:05 AM 45.4540 -61.9620 61° Northeast 537 618 33,000  Level FlightAware ADS-B
Tue 01:47:54 AM 45.5050 -61.8330 61° Northeast 537 618 33,000  Level FlightAware ADS-B
Tue 01:48:46 AM 45.6600 -61.3970 63° Northeast 536 617 33,000  Level FlightAware ADS-B
Tue 01:49:24 AM 45.6970 -61.2960 62° Northeast 536 617 33,000  Level FlightAware ADS-B
Tue 01:50:12 AM 45.7590 -61.1270 62° Northeast 539 620 33,000  Level FlightAware ADS-B
Tue 01:50:58 AM 45.8120 -60.9830 62° Northeast 540 621 33,000  Level FlightAware ADS-B
Tue 01:51:38 AM 45.8580 -60.8550 63° Northeast 542 624 33,000  Level FlightAware ADS-B
Tue 01:52:22 AM 45.9100 -60.7130 62° Northeast 541 623 33,000  Level FlightAware ADS-B
Tue 01:53:02 AM 45.9560 -60.5850 63° Northeast 542 624 33,000  Level FlightAware ADS-B
Tue 01:53:42 AM 46.0010 -60.4580 63° Northeast 544 626 33,000  Level FlightAware ADS-B
Tue 01:54:24 AM 46.0500 -60.3200 63° Northeast 544 626 33,000  Level FlightAware ADS-B
Tue 01:55:08 AM 46.1000 -60.1800 63° Northeast 545 627 33,000  Level FlightAware ADS-B
Tue 01:55:50 AM 46.1480 -60.0430 63° Northeast 546 628 33,000  Level FlightAware ADS-B
Tue 01:56:30 AM 46.1920 -59.9130 64° Northeast 546 628 33,000  Level FlightAware ADS-B
Tue 01:57:12 AM 46.2390 -59.7740 64° Northeast 547 629 33,000  Level FlightAware ADS-B
Tue 01:57:56 AM 46.2880 -59.6300 64° Northeast 548 631 33,000  Level FlightAware ADS-B
Tue 01:58:40 AM 46.3370 -59.4870 64° Northeast 549 632 33,000  Level FlightAware ADS-B
Tue 01:59:20 AM 46.3830 -59.3520 64° Northeast 550 633 33,000  Level FlightAware ADS-B
Tue 02:00:00 AM 46.4270 -59.2220 64° Northeast 551 634 33,000  Level FlightAware ADS-B
Tue 02:00:45 AM 46.4780 -59.0720 64° Northeast 552 635 33,000  Level FlightAware ADS-B
Tue 02:01:25 AM 46.5230 -58.9400 64° Northeast 552 635 33,000  Level FlightAware ADS-B
Tue 02:02:07 AM 46.5700 -58.7980 64° Northeast 552 635 33,000  Level FlightAware ADS-B
Tue 02:02:43 AM 46.6100 -58.6790 64° Northeast 552 635 33,000  Level FlightAware ADS-B
Tue 02:03:32 AM 46.6540 -58.5480 64° Northeast 552 635 33,000  Level FlightAware ADS-B
Tue 02:04:08 AM 46.6880 -58.4460 64° Northeast 552 635 33,000  Level FlightAware ADS-B
Tue 02:04:58 AM 46.7360 -58.3030 64° Northeast 552 635 33,000  Level FlightAware ADS-B
Tue 02:05:34 AM 46.7700 -58.2010 64° Northeast 552 635 33,000  Level FlightAware ADS-B
Tue 02:06:36 AM 46.8290 -58.0240 64° Northeast 552 635 33,000  Level FlightAware ADS-B
Tue 02:07:13 AM 46.8640 -57.9180 64° Northeast 552 635 33,000  Level FlightAware ADS-B
Tue 02:08:00 AM 46.9590 -57.6120 65° Northeast 552 635 33,000  Level FlightAware ADS-B
Tue 02:08:39 AM 47.0000 -57.4840 65° Northeast 551 634 33,000  Level FlightAware ADS-B
Tue 02:09:19 AM 47.0440 -57.3430 65° Northeast 550 633 33,000  Level FlightAware ADS-B
Tue 02:10:14 AM 47.1010 -57.1580 66° East 549 632 33,000  Level FlightAware ADS-B
Tue 02:11:14 AM 47.1640 -56.9550 65° Northeast 547 629 33,000  Level FlightAware ADS-B
Tue 02:11:58 AM 47.2100 -56.8040 66° East 547 629 33,000  Level FlightAware ADS-B
Tue 02:12:38 AM 47.2510 -56.6670 66° East 547 629 33,000  Level FlightAware ADS-B
Tue 02:13:19 AM 47.2910 -56.5370 66° East 549 632 33,000  Level FlightAware ADS-B
Tue 02:14:04 AM 47.3380 -56.3780 66° East 549 632 33,000  Level FlightAware ADS-B
Tue 02:14:44 AM 47.3780 -56.2460 66° East 549 632 33,000  Level FlightAware ADS-B
Tue 02:15:40 AM 47.4360 -56.0500 66° East 551 634 33,000  Level FlightAware ADS-B
Tue 02:16:19 AM 47.4740 -55.9220 66° East 551 634 33,000  Level FlightAware ADS-B
Tue 02:16:59 AM 47.5160 -55.7750 67° East 552 635 33,000  Level FlightAware ADS-B
Tue 02:17:44 AM 47.5630 -55.6150 66° East 553 636 33,000  Level FlightAware ADS-B
Tue 02:18:24 AM 47.6020 -55.4780 67° East 553 636 33,000  Level FlightAware ADS-B
Tue 02:19:04 AM 47.6400 -55.3410 68° East 554 638 33,000  Level FlightAware ADS-B
Tue 02:19:50 AM 47.6870 -55.1770 67° East 553 636 33,000  Level FlightAware ADS-B
Tue 02:20:29 AM 47.7260 -55.0370 67° East 552 635 33,000  Level FlightAware ADS-B
Tue 02:21:14 AM 47.7700 -54.8800 67° East 553 636 33,000  Level FlightAware ADS-B
Tue 02:21:54 AM 47.8090 -54.7380 68° East 553 636 33,000  Level FlightAware ADS-B
Tue 02:22:34 AM 47.8470 -54.6000 68° East 553 636 33,000  Level FlightAware ADS-B
Tue 02:23:19 AM 47.8920 -54.4420 67° East 554 638 33,000  Level FlightAware ADS-B
Tue 02:24:04 AM 47.9360 -54.2820 68° East 553 636 33,000  Level FlightAware ADS-B
Tue 02:24:44 AM 47.9750 -54.1400 68° East 554 638 33,000  Level FlightAware ADS-B
Tue 02:25:24 AM 48.0140 -53.9990 67° East 554 638 33,000  Level FlightAware ADS-B
Tue 02:26:04 AM 48.0520 -53.8560 68° East 555 639 33,000  Level FlightAware ADS-B
Tue 02:26:49 AM 48.0940 -53.6970 68° East 555 639 33,000  Level FlightAware ADS-B
Tue 02:27:34 AM 48.1360 -53.5400 68° East 555 639 33,000  Level FlightAware ADS-B
Tue 02:28:15 AM 48.1750 -53.3920 68° East 556 640 33,000  Level FlightAware ADS-B
Tue 02:28:59 AM 48.2150 -53.2360 69° East 556 640 33,000  Level FlightAware ADS-B
Tue 02:29:39 AM 48.2550 -53.0870 68° East 554 638 33,000  Level FlightAware ADS-B
Tue 02:30:04 AM 48.2770 -53.0020 69° East 555 639 33,000  Level FlightAware ADS-B
Tue 02:30:49 AM 48.3200 -52.8390 68° East 556 640 33,000  Level FlightAware ADS-B
Tue 02:31:30 AM 48.3580 -52.6910 69° East 557 641 33,000  Level FlightAware ADS-B
Tue 02:32:10 AM 48.3940 -52.5470 69° East 557 641 33,000  Level FlightAware ADS-B
Tue 02:33:12 AM 48.4470 -52.3390 69° East 557 641 33,000  Level FlightAware ADS-B
Tue 02:34:08 AM 48.4970 -52.1400 69° East 557 641 33,000  Level FlightAware ADS-B
Tue 02:34:46 AM 48.5370 -51.9760 70° East 559 643 33,000  Level FlightAware ADS-B
Tue 02:35:30 AM 48.5760 -51.8180 69° East 560 644 33,000  Level FlightAware ADS-B
Tue 02:36:12 AM 48.6130 -51.6640 70° East 559 643 33,000  Level FlightAware ADS-B
Tue 02:36:48 AM 48.6440 -51.5360 70° East 557 641 33,000  Level FlightAware ADS-B
Tue 02:37:45 AM 48.6900 -51.3440 70° East 557 641 33,000  Level FlightAware ADS-B
Tue 02:38:34 AM 48.7380 -51.1440 70° East 554 638 33,000  Level FlightAware ADS-B
Tue 02:39:14 AM 48.7710 -51.0020 71° East 555 639 33,000  Level FlightAware ADS-B
Tue 02:39:50 AM 48.8010 -50.8730 71° East 555 639 33,000  Level FlightAware ADS-B
Tue 02:40:39 AM 48.8450 -50.6840 70° East 556 640 33,000  Level FlightAware ADS-B
Tue 02:41:17 AM 48.8740 -50.5650 70° East 556 640 33,000  Level FlightAware ADS-B
Tue 02:42:05 AM 48.9100 -50.4150 70° East 556 640 33,000  Level FlightAware ADS-B
Tue 02:42:39 AM 48.9350 -50.3090 70° East 556 640 33,000  Level FlightAware ADS-B
Tue 02:43:28 AM 48.9720 -50.1550 70° East 556 640 33,000  Level FlightAware ADS-B
Tue 02:44:04 AM 48.9990 -50.0430 70° East 556 640 33,000  Level FlightAware ADS-B
Tue 02:44:53 AM 49.0350 -49.8890 70° East 556 640 33,000  Level FlightAware ADS-B
Tue 02:45:29 AM 49.0620 -49.7760 70° East 556 640 33,000  Level FlightAware ADS-B
Tue 02:46:17 AM 49.0980 -49.6260 70° East 556 640 33,000  Level FlightAware ADS-B
Tue 02:46:54 AM 49.1260 -49.5100 70° East 556 640 33,000  Level FlightAware ADS-B
Tue 02:47:00 AM 49.0000 -50.0000 77° East 562 647 33,000  Level ETMS Enhanced Traffic Management System
Tue 02:47:30 AM 49.1167 -49.0667 77° East 570 656 33,000  Level Gander Center
Tue 02:47:40 AM 49.1600 -49.3650 70° East 556 640 33,000  Level FlightAware ADS-B
Tue 02:48:17 AM 49.1880 -49.2490 70° East 556 640 33,000  Level FlightAware ADS-B
Tue 02:48:30 AM 49.1333 -48.8333 84° East 570 656 33,000  Level Gander Center
Tue 02:48:54 AM 49.2150 -49.1320 71° East 556 640 33,000  Level FlightAware ADS-B
Tue 02:49:30 AM 49.1833 -48.5833 73° East 570 656 33,000  Level Gander Center
Tue 02:49:40 AM 49.2500 -48.9880 70° East 556 640 33,000  Level FlightAware ADS-B
Tue 02:50:18 AM 49.2780 -48.8680 70° East 556 640 33,000  Level FlightAware ADS-B
Tue 02:50:30 AM 49.2000 -48.3667 83° East 570 656 33,000  Level Gander Center
Tue 02:51:30 AM 49.2333 -48.1000 79° East 570 656 33,000  Level Gander Center
Tue 02:52:30 AM 49.2667 -47.8833 77° East 560 644 33,000  Level Gander Center
Tue 02:53:30 AM 49.2833 -47.6500 84° East 560 644 33,000  Level Gander Center
Tue 02:54:30 AM 49.3167 -47.4167 78° East 560 644 33,000  Level Gander Center
Tue 02:55:30 AM 49.3500 -47.1833 78° East 570 656 33,000  Level Gander Center
Tue 02:56:30 AM 49.3833 -46.9500 78° East 560 644 33,000  Level Gander Center
Tue 02:58:00 AM 49.4246 -46.6240 79° East  Level FlightAware Approximate
Tue 03:05:00 AM 49.5928 -45.0924 80° East  Level FlightAware Approximate
Tue 03:06:00 AM 49.6147 -44.8727 81° East  Level FlightAware Approximate
Tue 03:07:00 AM 49.6361 -44.6528 81° East  Level FlightAware Approximate
Tue 03:08:00 AM 49.6572 -44.4327 82° East  Level FlightAware Approximate
Tue 03:09:00 AM 49.6778 -44.2123 82° East  Level FlightAware Approximate
Tue 03:10:00 AM 49.6980 -43.9918 82° East  Level FlightAware Approximate
Tue 03:11:00 AM 49.7178 -43.7712 82° East  Level FlightAware Approximate
Tue 03:12:00 AM 49.7378 -43.5504 82° East  Level FlightAware Approximate
Tue 03:13:00 AM 49.7573 -43.3296 82° East  Level FlightAware Approximate
Tue 03:14:00 AM 49.7765 -43.1085 82° East  Level FlightAware Approximate
Tue 03:15:00 AM 49.7952 -42.8872 82° East  Level FlightAware Approximate
Tue 03:16:00 AM 49.8135 -42.6658 83° East  Level FlightAware Approximate
Tue 03:17:00 AM 49.8314 -42.4442 83° East  Level FlightAware Approximate
Tue 03:18:00 AM 49.8489 -42.2225 83° East  Level FlightAware Approximate
Tue 03:19:00 AM 49.8659 -42.0005 83° East  Level FlightAware Approximate
Tue 03:20:00 AM 49.8825 -41.7785 83° East  Level FlightAware Approximate
Tue 03:21:00 AM 49.8987 -41.5563 83° East  Level FlightAware Approximate
Tue 03:22:00 AM 49.9145 -41.3339 84° East  Level FlightAware Approximate
Tue 03:23:00 AM 49.9299 -41.1114 84° East  Level FlightAware Approximate
Tue 03:24:00 AM 49.9448 -40.8888 84° East  Level FlightAware Approximate
Tue 03:25:00 AM 49.9593 -40.6660 84° East  Level FlightAware Approximate
Tue 03:26:00 AM 49.9733 -40.4431 84° East  Level FlightAware Approximate
Tue 03:27:00 AM 49.9870 -40.2201 84° East  Level FlightAware Approximate
Tue 03:28:00 AM 50.0004 -39.9969 77° East  Level FlightAware Approximate
Tue 03:29:00 AM 50.0317 -39.7780 77° East  Level FlightAware Approximate
Tue 03:30:00 AM 50.0625 -39.5589 78° East  Level FlightAware Approximate
Tue 03:30:00 AM 50.0000 -40.0000 77° East 551 634 33,000  Level ETMS Enhanced Traffic Management System
Tue 03:31:00 AM 50.0929 -39.3394 78° East  Level FlightAware Approximate
Tue 03:32:00 AM 50.1230 -39.1197 78° East  Level FlightAware Approximate
Tue 03:33:00 AM 50.1525 -38.8997 78° East  Level FlightAware Approximate
Tue 03:34:00 AM 50.1817 -38.6795 78° East  Level FlightAware Approximate
Tue 03:35:00 AM 50.2105 -38.4589 78° East  Level FlightAware Approximate
Tue 03:36:00 AM 50.3153 -37.6601 79° East 551 634 33,000  Level FlightAware Transoceanic
Tue 03:37:00 AM 50.3442 -37.4245 79° East 551 634 33,000  Level FlightAware Transoceanic
Tue 03:38:00 AM 50.3727 -37.1885 79° East 551 634 33,000  Level FlightAware Transoceanic
Tue 03:39:00 AM 50.4007 -36.9523 80° East 551 634 33,000  Level FlightAware Transoceanic
Tue 03:40:00 AM 50.4282 -36.7159 80° East 551 634 33,000  Level FlightAware Transoceanic
Tue 03:41:00 AM 50.4552 -36.4791 80° East 551 634 33,000  Level FlightAware Transoceanic
Tue 03:42:00 AM 50.4817 -36.2421 80° East 551 634 33,000  Level FlightAware Transoceanic
Tue 03:43:00 AM 50.5078 -36.0048 80° East 551 634 33,000  Level FlightAware Transoceanic
Tue 03:44:00 AM 50.5334 -35.7672 80° East 551 634 33,000  Level FlightAware Transoceanic
Tue 03:45:00 AM 50.5584 -35.5294 81° East 551 634 33,000  Level FlightAware Transoceanic
Tue 03:46:00 AM 50.5830 -35.2914 81° East 551 634 33,000  Level FlightAware Transoceanic
Tue 03:47:00 AM 50.6072 -35.0531 81° East 551 634 33,000  Level FlightAware Transoceanic
Tue 03:48:00 AM 50.6308 -34.8145 81° East 551 634 33,000  Level FlightAware Transoceanic
Tue 03:49:00 AM 50.6539 -34.5757 81° East 551 634 33,000  Level FlightAware Transoceanic
Tue 03:50:00 AM 50.6766 -34.3367 82° East 551 634 33,000  Level FlightAware Transoceanic
Tue 03:51:00 AM 50.6988 -34.0975 82° East 551 634 33,000  Level FlightAware Transoceanic
Tue 03:52:00 AM 50.7204 -33.8580 82° East 551 634 33,000  Level FlightAware Transoceanic
Tue 03:53:00 AM 50.7416 -33.6183 82° East 551 634 33,000  Level FlightAware Transoceanic
Tue 03:54:00 AM 50.7623 -33.3784 82° East 551 634 33,000  Level FlightAware Transoceanic
Tue 03:55:00 AM 50.7825 -33.1383 83° East 551 634 33,000  Level FlightAware Transoceanic
Tue 03:56:00 AM 50.8022 -32.8980 83° East 551 634 33,000  Level FlightAware Transoceanic
Tue 03:57:00 AM 50.8214 -32.6575 83° East 551 634 33,000  Level FlightAware Transoceanic
Tue 03:58:00 AM 50.8402 -32.4168 83° East 551 634 33,000  Level FlightAware Transoceanic
Tue 03:59:00 AM 50.8584 -32.1759 83° East 551 634 33,000  Level FlightAware Transoceanic
Tue 04:00:00 AM 50.8761 -31.9348 83° East 551 634 33,000  Level FlightAware Transoceanic
Tue 04:01:00 AM 50.8933 -31.6935 84° East 551 634 33,000  Level FlightAware Transoceanic
Tue 04:02:00 AM 50.9101 -31.4521 84° East 551 634 33,000  Level FlightAware Transoceanic
Tue 04:03:00 AM 50.9263 -31.2105 84° East 551 634 33,000  Level FlightAware Transoceanic
Tue 04:04:00 AM 50.9421 -30.9687 84° East 551 634 33,000  Level FlightAware Transoceanic
Tue 04:05:00 AM 50.9573 -30.7267 84° East 551 634 33,000  Level FlightAware Transoceanic
Tue 04:06:00 AM 50.9720 -30.4846 85° East 551 634 33,000  Level FlightAware Transoceanic
Tue 04:07:00 AM 50.9863 -30.2424 85° East 551 634 33,000  Level FlightAware Transoceanic
Tue 04:08:00 AM 50.9992 -30.0144 85° East  Level FlightAware Approximate
Tue 04:09:00 AM 51.0116 -29.7863 85° East  Level FlightAware Approximate
Tue 04:10:00 AM 51.0084 -29.8004 86° East  Level FlightAware Approximate
Tue 04:11:00 AM 51.0175 -29.5719 86° East  Level FlightAware Approximate
Tue 04:11:00 AM 51.0000 -30.0000 86° East 552 635 33,000  Level ETMS Enhanced Traffic Management System
Tue 04:12:00 AM 51.0262 -29.3433 86° East  Level FlightAware Approximate
Tue 04:13:00 AM 51.0345 -29.1146 87° East  Level FlightAware Approximate
Tue 04:14:00 AM 51.0423 -28.8858 87° East  Level FlightAware Approximate
Tue 04:15:00 AM 51.0497 -28.6569 87° East  Level FlightAware Approximate
Tue 04:16:00 AM 51.0566 -28.4280 87° East  Level FlightAware Approximate
Tue 04:17:00 AM 51.0732 -27.8078 88° East 552 635 33,000  Level FlightAware Transoceanic
Tue 04:18:00 AM 51.0788 -27.5639 88° East 552 635 33,000  Level FlightAware Transoceanic
Tue 04:19:00 AM 51.0838 -27.3199 88° East 552 635 33,000  Level FlightAware Transoceanic
Tue 04:20:00 AM 51.0884 -27.0758 88° East 552 635 33,000  Level FlightAware Transoceanic
Tue 04:21:00 AM 51.0925 -26.8317 89° East 552 635 33,000  Level FlightAware Transoceanic
Tue 04:22:00 AM 51.0960 -26.5876 89° East 552 635 33,000  Level FlightAware Transoceanic
Tue 04:23:00 AM 51.0991 -26.3434 89° East 552 635 33,000  Level FlightAware Transoceanic
Tue 04:24:00 AM 51.1016 -26.0992 89° East 552 635 33,000  Level FlightAware Transoceanic
Tue 04:25:00 AM 51.1037 -25.8549 89° East 552 635 33,000  Level FlightAware Transoceanic
Tue 04:26:00 AM 51.1052 -25.6107 90° East 552 635 33,000  Level FlightAware Transoceanic
Tue 04:27:00 AM 51.1062 -25.3664 90° East 552 635 33,000  Level FlightAware Transoceanic
Tue 04:28:00 AM 51.1067 -25.1221 90° East 552 635 33,000  Level FlightAware Transoceanic
Tue 04:29:00 AM 51.1067 -24.8779 90° East 552 635 33,000  Level FlightAware Transoceanic
Tue 04:30:00 AM 51.1062 -24.6336 90° East 552 635 33,000  Level FlightAware Transoceanic
Tue 04:31:00 AM 51.1052 -24.3893 90° East 552 635 33,000  Level FlightAware Transoceanic
Tue 04:32:00 AM 51.1037 -24.1451 91° East 552 635 33,000  Level FlightAware Transoceanic
Tue 04:33:00 AM 51.1016 -23.9008 91° East 552 635 33,000  Level FlightAware Transoceanic
Tue 04:34:00 AM 51.0991 -23.6566 91° East 552 635 33,000  Level FlightAware Transoceanic
Tue 04:35:00 AM 51.0960 -23.4124 91° East 552 635 33,000  Level FlightAware Transoceanic
Tue 04:36:00 AM 51.0925 -23.1683 91° East 552 635 33,000  Level FlightAware Transoceanic
Tue 04:37:00 AM 51.0884 -22.9242 92° East 552 635 33,000  Level FlightAware Transoceanic
Tue 04:38:00 AM 51.0838 -22.6801 92° East 552 635 33,000  Level FlightAware Transoceanic
Tue 04:39:00 AM 51.0788 -22.4361 92° East 552 635 33,000  Level FlightAware Transoceanic
Tue 04:40:00 AM 51.0732 -22.1922 92° East 552 635 33,000  Level FlightAware Transoceanic
Tue 04:41:00 AM 51.0671 -21.9483 92° East 552 635 33,000  Level FlightAware Transoceanic
Tue 04:42:00 AM 51.0604 -21.7045 93° East 552 635 33,000  Level FlightAware Transoceanic
Tue 04:43:00 AM 51.0533 -21.4607 93° East 552 635 33,000  Level FlightAware Transoceanic
Tue 04:44:00 AM 51.0457 -21.2170 93° East 552 635 33,000  Level FlightAware Transoceanic
Tue 04:45:00 AM 51.0376 -20.9734 93° East 552 635 33,000  Level FlightAware Transoceanic
Tue 04:46:00 AM 51.0289 -20.7299 93° East 552 635 33,000  Level FlightAware Transoceanic
Tue 04:47:00 AM 51.0198 -20.4865 94° East 552 635 33,000  Level FlightAware Transoceanic
Tue 04:48:00 AM 51.0102 -20.2432 94° East 552 635 33,000 79 Level FlightAware Transoceanic
Tue 04:49:00 AM 51.0006 -20.0147 94° East  Level FlightAware Approximate
Tue 04:50:00 AM 50.9907 -19.7864 94° East  Level FlightAware Approximate
Tue 04:51:00 AM 50.9783 -19.8037 100° East  Level FlightAware Approximate
Tue 04:52:00 AM 50.9530 -19.5785 100° East  Level FlightAware Approximate
Tue 04:53:00 AM 50.9273 -19.3539 100° East  Level FlightAware Approximate
Tue 04:54:00 AM 50.9012 -19.1296 100° East  Level FlightAware Approximate
Tue 04:55:00 AM 50.8746 -18.9055 101° East  Level FlightAware Approximate
Tue 04:56:00 AM 50.8476 -18.6817 101° East  Level FlightAware Approximate
Tue 04:57:00 AM 50.8202 -18.4581 101° East  Level FlightAware Approximate
Tue 04:58:00 AM 50.7923 -18.2349 101° East  Level FlightAware Approximate
Tue 04:59:00 AM 50.7641 -18.0119 101° East  Level FlightAware Approximate
Tue 05:00:00 AM 50.7354 -17.7891 101° East  Level FlightAware Approximate
Tue 05:01:00 AM 50.7062 -17.5666 102° East  Level FlightAware Approximate
Tue 05:02:00 AM 50.6767 -17.3444 102° East  Level FlightAware Approximate
Tue 05:03:00 AM 50.6467 -17.1225 102° East  Level FlightAware Approximate
Tue 05:04:00 AM 50.6163 -16.9009 102° East  Level FlightAware Approximate
Tue 05:05:00 AM 50.5855 -16.6796 102° East  Level FlightAware Approximate
Tue 05:06:00 AM 50.5543 -16.4585 102° East  Level FlightAware Approximate
Tue 05:07:00 AM 50.5227 -16.2378 103° East  Level FlightAware Approximate
Tue 05:08:00 AM 50.4906 -16.0173 103° East  Level FlightAware Approximate
Tue 05:09:00 AM 50.4581 -15.7972 103° East  Level FlightAware Approximate
Tue 05:10:00 AM 50.4253 -15.5773 103° East  Level FlightAware Approximate
Tue 05:11:00 AM 50.3919 -15.3578 103° East  Level FlightAware Approximate
Tue 05:12:00 AM 50.3582 -15.1386 103° East  Level FlightAware Approximate
Tue 05:13:00 AM 50.3241 -14.9197 104° East  Level FlightAware Approximate
Tue 05:14:00 AM 50.2896 -14.7010 104° East  Level FlightAware Approximate
Tue 05:15:00 AM 50.2546 -14.4828 104° East  Level FlightAware Approximate
Tue 05:16:00 AM 50.2192 -14.2648 104° East  Level FlightAware Approximate
Tue 05:17:00 AM 50.1835 -14.0472 104° East  Level FlightAware Approximate
Tue 05:18:00 AM 50.1473 -13.8299 104° East  Level FlightAware Approximate
Tue 05:19:00 AM 50.1107 -13.6129 105° East  Level FlightAware Approximate
Tue 05:20:00 AM 50.0738 -13.3962 105° East  Level FlightAware Approximate
Tue 05:21:00 AM 50.0364 -13.1799 105° East  Level FlightAware Approximate
Tue 05:22:00 AM 49.9986 -12.9640 105° East  Level FlightAware Approximate
Tue 05:23:00 AM 49.9604 -12.7483 105° East  Level FlightAware Approximate
Tue 05:24:00 AM 49.9218 -12.5330 105° East  Level FlightAware Approximate
Tue 05:25:00 AM 49.8829 -12.3181 106° East  Level FlightAware Approximate
Tue 05:26:00 AM 49.8435 -12.1035 106° East  Level FlightAware Approximate
Tue 05:27:00 AM 49.8037 -11.8893 106° East  Level FlightAware Approximate
Tue 05:28:00 AM 49.7636 -11.6754 106° East  Level FlightAware Approximate
Tue 05:29:00 AM 49.7230 -11.4619 106° East  Level FlightAware Approximate
Tue 05:30:00 AM 49.6821 -11.2487 106° East  Level FlightAware Approximate
Tue 05:31:00 AM 49.6407 -11.0359 107° East  Level FlightAware Approximate
Tue 05:32:00 AM 49.5990 -10.8234 107° East  Level FlightAware Approximate
Tue 05:33:00 AM 49.5569 -10.6113 107° East  Level FlightAware Approximate
Tue 05:34:00 AM 49.5144 -10.3996 107° East  Level FlightAware Approximate
Tue 05:35:00 AM 49.4715 -10.1883 107° East  Level FlightAware Approximate
Tue 05:36:00 AM 49.4282 -9.9773 107° East  Level FlightAware Approximate
Tue 05:37:00 AM 49.3845 -9.7667 108° East  Level FlightAware Approximate
Tue 05:37:38 AM 49.6760 -8.9701 108° East 496 571 37,000  Level FlightAware UK
Tue 05:38:08 AM 49.6438 -8.8626 115° Southeast 494 568 37,000  Level FlightAware UK
Tue 05:38:38 AM 49.6117 -8.7551 115° Southeast 494 568 37,000  Level FlightAware UK
Tue 05:39:08 AM 49.5795 -8.6477 115° Southeast 498 573 37,000  Level FlightAware UK
Tue 05:39:38 AM 49.5471 -8.5406 115° Southeast 498 573 37,000  Level FlightAware UK
Tue 05:40:08 AM 49.5145 -8.4335 115° Southeast 496 571 37,000  Level FlightAware UK
Tue 05:40:37 AM 49.4980 -8.3600 115° Southeast 549 632 37,000  Level FlightAware ADS-B
Tue 05:40:38 AM 49.4820 -8.3265 115° Southeast 496 571 37,000  Level FlightAware UK
Tue 05:41:08 AM 49.4496 -8.2196 115° Southeast 496 571 37,000  Level FlightAware UK
Tue 05:41:19 AM 49.4550 -8.2190 115° Southeast 549 632 37,000  Level FlightAware ADS-B
Tue 05:42:06 AM 49.3970 -8.0290 115° Southeast 548 631 37,000  Level FlightAware ADS-B
Tue 05:42:38 AM 49.3512 -7.9002 115° Southeast 494 568 37,000  Level FlightAware UK
Tue 05:42:49 AM 49.3520 -7.8830 115° Southeast 548 631 37,000  Level FlightAware ADS-B
Tue 05:43:27 AM 49.3100 -7.7470 115° Southeast 547 629 37,000  Level FlightAware ADS-B
Tue 05:44:07 AM 49.2650 -7.6030 116° Southeast 549 632 37,000  Level FlightAware ADS-B
Tue 05:44:57 AM 49.2100 -7.4270 116° Southeast 554 638 37,000  Level FlightAware ADS-B
Tue 05:45:28 AM 49.1760 -7.3190 116° Southeast 555 639 37,000  Level FlightAware ADS-B
Tue 05:46:08 AM 49.1198 -7.1604 116° Southeast 492 566 37,000  Level FlightAware UK
Tue 05:46:09 AM 49.1330 -7.1810 116° Southeast 556 640 37,000  Level FlightAware ADS-B
Tue 05:46:44 AM 49.0794 -7.0333 116° Southeast 494 568 37,000  Level FlightAware UK
Tue 05:46:59 AM 49.0740 -6.9950 116° Southeast 557 641 37,000  Level FlightAware ADS-B
Tue 05:47:34 AM 49.0340 -6.8690 116° Southeast 557 641 37,000  Level FlightAware ADS-B
Tue 05:48:15 AM 48.9774 -6.7149 116° Southeast 494 568 37,000  Level FlightAware UK
Tue 05:48:15 AM 48.9890 -6.7300 116° Southeast 558 642 37,000  Level FlightAware ADS-B
Tue 05:48:45 AM 48.9430 -6.6091 116° Southeast 494 568 37,000  Level FlightAware UK
Tue 05:49:00 AM 48.9360 -6.5650 116° Southeast 560 644 37,000  Level FlightAware ADS-B
Tue 05:49:40 AM 48.8900 -6.4240 116° Southeast 561 646 37,000  Level FlightAware ADS-B
Tue 05:49:45 AM 48.8745 -6.3971 116° Southeast 496 571 37,000  Level FlightAware UK
Tue 05:50:15 AM 48.8397 -6.2912 116° Southeast 494 568 37,000  Level FlightAware UK
Tue 05:50:25 AM 48.8380 -6.2650 116° Southeast 562 647 37,000  Level FlightAware ADS-B
Tue 05:51:10 AM 48.7870 -6.1100 116° Southeast 564 649 37,000  Level FlightAware ADS-B
Tue 05:51:51 AM 48.7272 -5.9529 116° Southeast 498 573 37,000  Level FlightAware UK
Tue 05:52:05 AM 48.7210 -5.9100 116° Southeast 564 649 37,000  Level FlightAware ADS-B
Tue 05:52:45 AM 48.6740 -5.7690 117° Southeast 564 649 37,000  Level FlightAware ADS-B
Tue 05:53:21 AM 48.6205 -5.6355 117° Southeast 500 575 37,000  Level FlightAware UK
Tue 05:53:29 AM 48.6220 -5.6150 117° Southeast 565 650 37,000  Level FlightAware ADS-B
Tue 05:54:13 AM 48.5690 -5.4580 117° Southeast 565 650 37,000  Level FlightAware ADS-B
Tue 05:54:51 AM 48.5133 -5.3195 117° Southeast 500 575 37,000  Level FlightAware UK
Tue 05:54:52 AM 48.5230 -5.3230 117° Southeast 566 651 37,000  Level FlightAware ADS-B
Tue 05:55:36 AM 48.4710 -5.1710 117° Southeast 565 650 37,000  Level FlightAware ADS-B
Tue 05:56:18 AM 48.4210 -5.0240 117° Southeast 565 650 37,000  Level FlightAware ADS-B
Tue 05:57:00 AM 48.3710 -4.8750 117° Southeast 566 651 37,000  Level FlightAware ADS-B
Tue 05:57:33 AM 48.3184 -4.7545 117° Southeast 500 575 37,000  Level FlightAware UK
Tue 05:57:40 AM 48.3230 -4.7360 117° Southeast 566 651 37,000  Level FlightAware ADS-B
Tue 05:58:22 AM 48.2720 -4.5880 117° Southeast 565 650 37,000  Level FlightAware ADS-B
Tue 05:59:06 AM 48.2180 -4.4350 118° Southeast 565 650 37,000  Level FlightAware ADS-B
Tue 05:59:46 AM 48.1700 -4.2970 118° Southeast 565 650 37,000  Level FlightAware ADS-B
Tue 06:00:31 AM 48.1160 -4.1450 118° Southeast 565 650 37,000  Level FlightAware ADS-B
Tue 06:01:12 AM 48.0640 -3.9990 118° Southeast 565 650 37,000  Level FlightAware ADS-B
Tue 06:01:52 AM 48.0150 -3.8640 118° Southeast 565 650 37,000  Level FlightAware ADS-B
Tue 06:02:36 AM 47.9620 -3.7130 118° Southeast 567 652 37,000  Level FlightAware ADS-B
Tue 06:03:16 AM 47.9110 -3.5750 119° Southeast 568 654 37,000  Level FlightAware ADS-B
Tue 06:04:00 AM 47.8560 -3.4220 118° Southeast 569 655 37,000  Level FlightAware ADS-B
Tue 06:04:42 AM 47.8030 -3.2810 119° Southeast 569 655 37,000  Level FlightAware ADS-B
Tue 06:05:24 AM 47.7440 -3.1410 122° Southeast 569 655 37,000  Level FlightAware ADS-B
Tue 06:06:04 AM 47.6860 -3.0100 123° Southeast 568 654 37,000  Level FlightAware ADS-B
Tue 06:06:48 AM 47.6210 -2.8660 124° Southeast 568 654 37,000  Level FlightAware ADS-B
Tue 06:07:28 AM 47.5640 -2.7400 124° Southeast 569 655 37,000  Level FlightAware ADS-B
Tue 06:08:12 AM 47.4990 -2.6000 124° Southeast 569 655 37,000  Level FlightAware ADS-B
Tue 06:08:54 AM 47.4350 -2.4620 124° Southeast 570 656 37,000  Level FlightAware ADS-B
Tue 06:09:34 AM 47.3760 -2.3370 125° Southeast 570 656 37,000  Level FlightAware ADS-B
Tue 06:10:18 AM 47.3120 -2.2000 125° Southeast 570 656 37,000  Level FlightAware ADS-B
Tue 06:10:58 AM 47.2500 -2.0700 125° Southeast 570 656 37,000  Level FlightAware ADS-B
Tue 06:11:42 AM 47.1840 -1.9310 125° Southeast 570 656 37,000  Level FlightAware ADS-B
Tue 06:12:24 AM 47.1200 -1.7970 125° Southeast 569 655 37,000  Level FlightAware ADS-B
Tue 06:13:04 AM 47.0590 -1.6710 125° Southeast 569 655 37,000  Level FlightAware ADS-B
Tue 06:14:01 AM 46.9700 -1.4890 126° Southeast 569 655 37,000  Level FlightAware ADS-B
Tue 06:14:41 AM 46.9100 -1.3660 125° Southeast 569 655 37,000  Level FlightAware ADS-B
Tue 06:15:29 AM 46.8360 -1.2160 126° Southeast 569 655 37,000  Level FlightAware ADS-B
Tue 06:16:13 AM 46.7690 -1.0780 125° Southeast 570 656 37,000  Level FlightAware ADS-B
Tue 06:16:57 AM 46.7130 -0.9260 118° Southeast 570 656 37,000  Level FlightAware ADS-B
Tue 06:17:46 AM 46.6650 -0.7570 112° Southeast 569 655 37,000  Level FlightAware ADS-B
Tue 06:18:59 AM 46.5950 -0.5080 112° Southeast 567 652 37,000  Level FlightAware ADS-B
Tue 06:19:40 AM 46.5560 -0.3750 113° Southeast 567 652 37,000  Level FlightAware ADS-B
Tue 06:20:24 AM 46.5070 -0.2090 113° Southeast 568 654 37,000  Level FlightAware ADS-B
Tue 06:21:04 AM 46.4640 -0.0630 113° Southeast 568 654 37,000  Level FlightAware ADS-B
Tue 06:21:49 AM 46.4180 0.0910 113° Southeast 568 654 37,000  Level FlightAware ADS-B
Tue 06:22:34 AM 46.3710 0.2480 113° Southeast 567 652 37,000  Level FlightAware ADS-B
Tue 06:23:09 AM 46.3350 0.3680 113° Southeast 568 654 37,000  Level FlightAware ADS-B
Tue 06:23:54 AM 46.2870 0.5270 114° Southeast 567 652 37,000  Level FlightAware ADS-B
Tue 06:24:39 AM 46.2410 0.6820 113° Southeast 567 652 37,000  Level FlightAware ADS-B
Tue 06:25:19 AM 46.2000 0.8200 113° Southeast 567 652 37,000  Level FlightAware ADS-B
Tue 06:26:04 AM 46.1530 0.9800 113° Southeast 567 652 37,000  Level FlightAware ADS-B
Tue 06:26:43 AM 46.1120 1.1210 113° Southeast 566 651 37,000  Level FlightAware ADS-B
Tue 06:27:24 AM 46.0700 1.2600 113° Southeast 567 652 37,000  Level FlightAware ADS-B
Tue 06:28:04 AM 46.0270 1.3940 115° Southeast 568 654 37,000  Level FlightAware ADS-B
Tue 06:28:34 AM 45.9950 1.4910 115° Southeast 568 654 37,000  Level FlightAware ADS-B
Tue 06:29:09 AM 45.9540 1.6120 116° Southeast 568 654 37,000  Level FlightAware ADS-B
Tue 06:29:52 AM 45.9030 1.7640 116° Southeast 568 654 37,000  Level FlightAware ADS-B
Tue 06:30:35 AM 45.8530 1.9110 116° Southeast 567 652 37,000  Level FlightAware ADS-B
Tue 06:31:11 AM 45.8120 2.0280 117° Southeast 567 652 37,000  Level FlightAware ADS-B
Tue 06:31:53 AM 45.7630 2.1730 116° Southeast 568 654 37,000  Level FlightAware ADS-B
Tue 06:32:39 AM 45.7100 2.3250 116° Southeast 568 654 37,000  Level FlightAware ADS-B
Tue 06:33:18 AM 45.6640 2.4560 117° Southeast 569 655 37,000  Level FlightAware ADS-B
Tue 06:34:04 AM 45.6100 2.6090 117° Southeast 568 654 37,000  Level FlightAware ADS-B
Tue 06:35:03 AM 45.5450 2.7950 116° Southeast 568 654 37,000  Level FlightAware ADS-B
Tue 06:35:51 AM 45.4830 2.9680 117° Southeast 569 655 37,000  Level FlightAware ADS-B
Tue 06:36:37 AM 45.4270 3.1260 117° Southeast 569 655 37,000  Level FlightAware ADS-B
Tue 06:37:21 AM 45.3740 3.2720 117° Southeast 569 655 37,000  Level FlightAware ADS-B
Tue 06:38:03 AM 45.3230 3.4110 118° Southeast 569 655 37,000  Level FlightAware ADS-B
Tue 06:38:45 AM 45.2710 3.5500 118° Southeast 568 654 37,000  Level FlightAware ADS-B
Tue 06:39:27 AM 45.2210 3.6840 118° Southeast 568 654 37,000  Level FlightAware ADS-B
Tue 06:40:07 AM 45.1710 3.8180 118° Southeast 567 652 37,000  Level FlightAware ADS-B
Tue 06:40:51 AM 45.1150 3.9610 119° Southeast 566 651 37,000  Level FlightAware ADS-B
Tue 06:41:31 AM 45.0610 4.0880 121° Southeast 564 649 37,000  Level FlightAware ADS-B
Tue 06:42:15 AM 45.0050 4.2210 121° Southeast 563 648 37,000  Level FlightAware ADS-B
Tue 06:42:59 AM 44.9440 4.3650 121° Southeast 562 647 37,000  Level FlightAware ADS-B
Tue 06:43:39 AM 44.8900 4.4910 121° Southeast 562 647 37,000  Level FlightAware ADS-B
Tue 06:44:23 AM 44.8340 4.6250 120° Southeast 561 646 37,000  Level FlightAware ADS-B
Tue 06:45:03 AM 44.7780 4.7540 121° Southeast 560 644 37,000  Level FlightAware ADS-B
Tue 06:45:41 AM 44.7280 4.8720 121° Southeast 560 644 37,000  Level FlightAware ADS-B
Tue 06:46:27 AM 44.6680 5.0120 121° Southeast 561 646 37,000  Level FlightAware ADS-B
Tue 06:47:07 AM 44.6130 5.1420 121° Southeast 560 644 37,000  Level FlightAware ADS-B
Tue 06:47:49 AM 44.5560 5.2680 122° Southeast 559 643 37,000  Level FlightAware ADS-B
Tue 06:48:35 AM 44.4910 5.4060 123° Southeast 558 642 37,000  Level FlightAware ADS-B
Tue 06:49:13 AM 44.4370 5.5200 124° Southeast 556 640 37,000  Level FlightAware ADS-B
Tue 06:49:56 AM 44.3740 5.6510 124° Southeast 556 640 37,000  Level FlightAware ADS-B
Tue 06:50:41 AM 44.3100 5.7880 123° Southeast 558 642 37,000  Level FlightAware ADS-B
Tue 06:51:21 AM 44.2580 5.9080 121° Southeast 557 641 37,000  Level FlightAware ADS-B
Tue 06:52:01 AM 44.2040 6.0310 121° Southeast 558 642 37,000  Level FlightAware ADS-B
Tue 06:52:43 AM 44.1480 6.1610 121° Southeast 558 642 37,000  Level FlightAware ADS-B
Tue 06:53:29 AM 44.0850 6.3040 121° Southeast 558 642 37,000  Level FlightAware ADS-B
Tue 06:54:08 AM 44.0420 6.4220 117° Southeast 555 639 37,000  Level FlightAware ADS-B
Tue 06:54:48 AM 44.0060 6.5530 111° Southeast 555 639 37,000  Level FlightAware ADS-B
Tue 06:55:32 AM 43.9670 6.6930 111° Southeast 554 638 37,000  Level FlightAware ADS-B
Tue 06:56:11 AM 43.9270 6.8370 111° Southeast 553 636 37,000  Level FlightAware ADS-B
Tue 06:56:57 AM 43.8860 6.9870 111° Southeast 553 636 37,000  Level FlightAware ADS-B
Tue 06:57:37 AM 43.8410 7.1140 116° Southeast 553 636 37,000  Level FlightAware ADS-B
Tue 06:58:23 AM 43.7770 7.2520 123° Southeast 553 636 37,000  Level FlightAware ADS-B
Tue 06:59:01 AM 43.7210 7.3620 125° Southeast 552 635 37,000  Level FlightAware ADS-B
Tue 06:59:57 AM 43.6400 7.5180 126° Southeast 553 636 37,000  Level FlightAware ADS-B
Tue 07:00:37 AM 43.5830 7.6260 126° Southeast 553 636 37,000  Level FlightAware ADS-B
Tue 07:01:22 AM 43.5100 7.7650 126° Southeast 554 638 37,000  Level FlightAware ADS-B
Tue 07:02:02 AM 43.4560 7.8680 126° Southeast 554 638 37,000  Level FlightAware ADS-B
Tue 07:02:57 AM 43.3680 8.0340 126° Southeast 555 639 37,000  Level FlightAware ADS-B
Tue 07:03:42 AM 43.3000 8.1650 125° Southeast 554 638 37,000  Level FlightAware ADS-B
Tue 07:04:23 AM 43.2400 8.2780 126° Southeast 555 639 37,000  Level FlightAware ADS-B
Tue 07:05:34 AM 43.1300 8.4850 126° Southeast 554 638 37,000  Level FlightAware ADS-B
Tue 07:06:15 AM 43.0690 8.5990 126° Southeast 554 638 37,000  Level FlightAware ADS-B
Tue 07:06:58 AM 43.0040 8.7220 126° Southeast 553 636 37,000  Level FlightAware ADS-B
Tue 07:07:42 AM 42.9370 8.8450 127° Southeast 552 635 37,000  Level FlightAware ADS-B
Tue 07:08:18 AM 42.8820 8.9460 127° Southeast 552 635 37,000  Level FlightAware ADS-B
Tue 07:09:06 AM 42.8100 9.0780 127° Southeast 551 634 37,000  Level FlightAware ADS-B
Tue 07:09:48 AM 42.7440 9.1970 127° Southeast 549 632 37,000  Level FlightAware ADS-B
Tue 07:10:30 AM 42.6810 9.3140 126° Southeast 548 631 37,000  Level FlightAware ADS-B
Tue 07:11:03 AM 42.6330 9.4010 127° Southeast 546 628 37,000  Level FlightAware ADS-B
Tue 07:12:01 AM 42.5640 9.5710 119° Southeast 549 632 37,000  Level FlightAware ADS-B
Tue 07:12:40 AM 42.5290 9.7040 110° East 550 633 37,000  Level FlightAware ADS-B
Tue 07:13:26 AM 42.4910 9.8550 109° East 551 634 37,000  Level FlightAware ADS-B
Tue 07:14:06 AM 42.4570 9.9860 109° East 552 635 37,000  Level FlightAware ADS-B
Tue 07:14:46 AM 42.4230 10.1130 110° East 554 638 37,000  Level FlightAware ADS-B
Tue 07:15:30 AM 42.3840 10.2580 110° East 555 639 37,000  Level FlightAware ADS-B
Tue 07:16:11 AM 42.3490 10.3880 110° East 554 638 37,000  Level FlightAware ADS-B
Tue 07:16:54 AM 42.3120 10.5230 110° East 555 639 37,000  Level FlightAware ADS-B
Tue 07:17:36 AM 42.2740 10.6630 110° East 555 639 37,000  Level FlightAware ADS-B
Tue 07:18:18 AM 42.2350 10.8020 111° Southeast 556 640 37,000  Level FlightAware ADS-B
Tue 07:19:02 AM 42.1950 10.9470 110° East 556 640 37,000  Level FlightAware ADS-B
Tue 07:19:42 AM 42.1500 11.0710 116° Southeast 554 638 37,000  Level FlightAware ADS-B
Tue 07:20:22 AM 42.0880 11.1840 126° Southeast 548 631 37,000  Level FlightAware ADS-B
Tue 07:21:06 AM 42.0200 11.2940 130° Southeast 545 627 37,000  Level FlightAware ADS-B
Tue 07:21:46 AM 41.9540 11.3970 131° Southeast 542 624 37,000  Level FlightAware ADS-B
Tue 07:22:31 AM 41.8810 11.5130 130° Southeast 536 617 37,000  Level FlightAware ADS-B
Tue 07:23:11 AM 41.8170 11.6150 130° Southeast 536 617 37,000  Level FlightAware ADS-B
Tue 07:23:51 AM 41.7520 11.7170 130° Southeast 542 624 37,000  Level FlightAware ADS-B
Tue 07:24:36 AM 41.6790 11.8310 131° Southeast 541 623 37,000  Level FlightAware ADS-B
Tue 07:25:16 AM 41.6130 11.9330 131° Southeast 539 620 37,000  Level FlightAware ADS-B
Tue 07:25:57 AM 41.5490 12.0330 131° Southeast 532 612 37,000  Level FlightAware ADS-B
Tue 07:26:41 AM 41.4750 12.1460 131° Southeast 528 608 37,000  Level FlightAware ADS-B
Tue 07:27:21 AM 41.4110 12.2460 130° Southeast 526 605 37,000  Level FlightAware ADS-B
Tue 07:28:08 AM 41.3470 12.3470 130° Southeast 525 604 37,000  Level FlightAware ADS-B
Tue 07:29:04 AM 41.2490 12.4950 131° Southeast 521 600 37,000  Level FlightAware ADS-B
Tue 07:29:45 AM 41.1810 12.5990 131° Southeast 522 601 37,000  Level FlightAware ADS-B
Tue 07:30:25 AM 41.1180 12.6940 131° Southeast 520 598 37,000  Level FlightAware ADS-B
Tue 07:31:11 AM 41.0440 12.8060 131° Southeast 523 602 37,000  Level FlightAware ADS-B
Tue 07:31:47 AM 40.9850 12.8950 131° Southeast 523 602 37,000  Level FlightAware ADS-B
Tue 07:32:33 AM 40.9170 13.0110 128° Southeast 530 610 37,000  Level FlightAware ADS-B
Tue 07:33:15 AM 40.8660 13.1250 121° Southeast 532 612 37,000  Level FlightAware ADS-B
Tue 07:33:59 AM 40.8120 13.2530 119° Southeast 532 612 37,000  Level FlightAware ADS-B
Tue 07:34:37 AM 40.7660 13.3580 120° Southeast 530 610 37,000  Level FlightAware ADS-B
Tue 07:35:21 AM 40.7110 13.4840 120° Southeast 530 610 37,000  Level FlightAware ADS-B
Tue 07:36:03 AM 40.6620 13.5960 120° Southeast 530 610 37,000  Level FlightAware ADS-B
Tue 07:36:45 AM 40.6120 13.7090 120° Southeast 530 610 37,000  Level FlightAware ADS-B
Tue 07:37:23 AM 40.5640 13.8190 120° Southeast 529 609 37,000  Level FlightAware ADS-B
Tue 07:38:09 AM 40.5040 13.9530 120° Southeast 532 612 37,000  Level FlightAware ADS-B
Tue 07:38:47 AM 40.4580 14.0560 120° Southeast 534 615 37,000  Level FlightAware ADS-B
Tue 07:39:48 AM 40.3810 14.2280 120° Southeast 536 617 37,000  Level FlightAware ADS-B
Tue 07:40:24 AM 40.3360 14.3280 121° Southeast 534 615 37,000  Level FlightAware ADS-B
Tue 07:41:10 AM 40.2780 14.4560 121° Southeast 531 611 37,000  Level FlightAware ADS-B
Tue 07:41:52 AM 40.2250 14.5720 121° Southeast 530 610 37,000  Level FlightAware ADS-B
Tue 07:42:36 AM 40.1700 14.6920 121° Southeast 528 608 37,000  Level FlightAware ADS-B
Tue 07:43:18 AM 40.1160 14.8080 121° Southeast 527 606 37,000  Level FlightAware ADS-B
Tue 07:44:00 AM 40.0640 14.9220 121° Southeast 524 603 37,000  Level FlightAware ADS-B
Tue 07:44:40 AM 40.0150 15.0290 121° Southeast 523 602 37,000  Level FlightAware ADS-B
Tue 07:45:48 AM 39.9290 15.2150 121° Southeast 524 603 37,000  Level FlightAware ADS-B
Tue 07:46:32 AM 39.8730 15.3320 122° Southeast 523 602 37,000  Level FlightAware ADS-B
Tue 07:47:16 AM 39.8180 15.4500 121° Southeast 523 602 37,000  Level FlightAware ADS-B
Tue 07:47:52 AM 39.7710 15.5470 122° Southeast 524 603 37,000  Level FlightAware ADS-B
Tue 07:48:38 AM 39.7150 15.6700 121° Southeast 528 608 37,000  Level FlightAware ADS-B
Tue 07:49:20 AM 39.6700 15.7920 116° Southeast 529 609 37,000  Level FlightAware ADS-B
Tue 07:50:02 AM 39.6300 15.9100 114° Southeast 530 610 37,000  Level FlightAware ADS-B
Tue 07:50:42 AM 39.5900 16.0290 114° Southeast 527 606 37,000  Level FlightAware ADS-B
Tue 07:51:26 AM 39.5480 16.1550 113° Southeast 526 605 37,000  Level FlightAware ADS-B
Tue 07:52:08 AM 39.5060 16.2790 114° Southeast 525 604 37,000  Level FlightAware ADS-B
Tue 07:52:52 AM 39.4640 16.4040 113° Southeast 525 604 37,000  Level FlightAware ADS-B
Tue 07:53:34 AM 39.4230 16.5240 114° Southeast 526 605 37,000  Level FlightAware ADS-B
Tue 07:54:14 AM 39.3840 16.6420 113° Southeast 526 605 37,000  Level FlightAware ADS-B
Tue 07:54:54 AM 39.3450 16.7560 114° Southeast 524 603 37,000  Level FlightAware ADS-B
Tue 07:55:40 AM 39.3000 16.8870 114° Southeast 518 596 37,000  Level FlightAware ADS-B
Tue 07:56:20 AM 39.2620 16.9980 114° Southeast 520 598 37,000  Level FlightAware ADS-B
Tue 07:57:04 AM 39.2280 17.0960 114° Southeast 503 579 37,000  Level FlightAware ADS-B
Tue 07:57:44 AM 39.1830 17.2250 114° Southeast 522 601 37,000  Level FlightAware ADS-B
Tue 07:58:33 AM 39.1360 17.3610 114° Southeast 521 600 37,000  Level FlightAware ADS-B
Tue 07:59:21 AM 39.0910 17.4880 115° Southeast 519 597 37,000  Level FlightAware ADS-B
Tue 08:00:02 AM 39.0510 17.6040 114° Southeast 519 597 37,000  Level FlightAware ADS-B
Tue 08:00:42 AM 39.0120 17.7140 114° Southeast 518 596 37,000  Level FlightAware ADS-B
Tue 08:01:22 AM 38.9740 17.8230 114° Southeast 517 595 37,000  Level FlightAware ADS-B
Tue 08:02:12 AM 38.9150 17.9920 114° Southeast 514 592 37,000  Level FlightAware ADS-B
Tue 08:02:52 AM 38.8760 18.1030 114° Southeast 512 589 37,000  Level FlightAware ADS-B
Tue 08:03:36 AM 38.8330 18.2220 115° Southeast 510 587 37,000  Level FlightAware ADS-B
Tue 08:04:14 AM 38.7940 18.3310 115° Southeast 510 587 37,000  Level FlightAware ADS-B
Tue 08:04:55 AM 38.7540 18.4410 115° Southeast 511 588 37,000  Level FlightAware ADS-B
Tue 08:05:35 AM 38.7160 18.5450 115° Southeast 511 588 37,000  Level FlightAware ADS-B
Tue 08:06:15 AM 38.6820 18.6380 115° Southeast 512 589 37,000  Level FlightAware ADS-B
Tue 08:07:05 AM 38.6350 18.7670 115° Southeast 512 589 37,000  Level FlightAware ADS-B
Tue 08:07:43 AM 38.5950 18.8770 115° Southeast 512 589 37,000  Level FlightAware ADS-B
Tue 08:08:25 AM 38.5500 19.0040 114° Southeast 510 587 37,000  Level FlightAware ADS-B
Tue 08:09:10 AM 38.5130 19.1320 110° East 518 596 37,000  Level FlightAware ADS-B
Tue 08:09:54 AM 38.4820 19.2510 108° East 519 597 37,000  Level FlightAware ADS-B
Tue 08:10:30 AM 38.4500 19.3710 109° East 518 596 37,000  Level FlightAware ADS-B
Tue 08:11:35 AM 38.3990 19.5600 109° East 514 592 37,000  Level FlightAware ADS-B
Tue 08:12:16 AM 38.3710 19.6640 109° East 517 595 37,000  Level FlightAware ADS-B
Tue 08:13:05 AM 38.3310 19.8110 109° East 514 592 37,000  Level FlightAware ADS-B
Tue 08:13:47 AM 38.3020 19.9250 108° East 515 593 37,000  Level FlightAware ADS-B
Tue 08:14:21 AM 38.2800 20.0080 109° East 515 593 37,000  Level FlightAware ADS-B
Tue 08:15:07 AM 38.2360 20.1600 110° East 515 593 37,000  Level FlightAware ADS-B
Tue 08:16:08 AM 38.1880 20.3340 109° East 513 590 37,000  Level FlightAware ADS-B
Tue 08:16:42 AM 38.1570 20.4460 109° East 512 589 37,000  Level FlightAware ADS-B
Tue 08:17:28 AM 38.1160 20.5730 112° Southeast 505 581 37,000  Level FlightAware ADS-B
Tue 08:18:09 AM 38.0790 20.6730 115° Southeast 502 578 37,000  Level FlightAware ADS-B
Tue 08:18:54 AM 38.0320 20.7980 115° Southeast 501 577 37,000  Level FlightAware ADS-B
Tue 08:19:29 AM 37.9950 20.8950 116° Southeast 502 578 37,000  Level FlightAware ADS-B
Tue 08:20:30 AM 37.9330 21.0550 116° Southeast 504 580 37,000  Level FlightAware ADS-B
Tue 08:21:10 AM 37.8920 21.1610 116° Southeast 504 580 37,000  Level FlightAware ADS-B
Tue 08:21:52 AM 37.8500 21.2710 116° Southeast 503 579 37,000  Level FlightAware ADS-B
Tue 08:22:41 AM 37.8060 21.3850 116° Southeast 503 579 37,000  Level FlightAware ADS-B
Tue 08:23:38 AM 37.7530 21.5210 116° Southeast 502 578 37,000  Level FlightAware ADS-B
Tue 08:24:12 AM 37.7120 21.6260 116° Southeast 503 579 37,000  Level FlightAware ADS-B
Tue 08:25:00 AM 37.6710 21.7330 116° Southeast 503 579 37,000  Level FlightAware ADS-B
Tue 08:25:39 AM 37.6270 21.8450 116° Southeast 502 578 37,000  Level FlightAware ADS-B
Tue 08:26:25 AM 37.5870 21.9480 116° Southeast 502 578 37,000  Level FlightAware ADS-B
Tue 08:27:03 AM 37.5540 22.0340 116° Southeast 502 578 37,000  Level FlightAware ADS-B
Tue 08:27:51 AM 37.5120 22.1410 116° Southeast 502 578 37,000  Level FlightAware ADS-B
Tue 08:28:29 AM 37.4420 22.3120 117° Southeast 504 580 37,000  Level FlightAware ADS-B
Tue 08:29:08 AM 37.4090 22.4030 115° Southeast 505 581 37,000  Level FlightAware ADS-B
Tue 08:29:54 AM 37.3720 22.5080 114° Southeast 505 581 37,000  Level FlightAware ADS-B
Tue 08:30:30 AM 37.3430 22.5910 114° Southeast 505 581 37,000  Level FlightAware ADS-B
Tue 08:31:32 AM 37.2900 22.8220 106° East 516 594 37,000  Level FlightAware ADS-B
Tue 08:32:16 AM 37.2530 22.9460 111° Southeast 517 595 37,000  Level FlightAware ADS-B
Tue 08:32:56 AM 37.2200 23.0590 110° East 518 596 37,000  Level FlightAware ADS-B
Tue 08:33:40 AM 37.1830 23.1810 111° Southeast 517 595 37,000  Level FlightAware ADS-B
Tue 08:34:20 AM 37.1480 23.2950 111° Southeast 517 595 37,000  Level FlightAware ADS-B
Tue 08:35:03 AM 37.1120 23.4140 111° Southeast 516 594 37,000  Level FlightAware ADS-B
Tue 08:35:43 AM 37.0780 23.5260 111° Southeast 517 595 37,000  Level FlightAware ADS-B
Tue 08:36:23 AM 37.0430 23.6370 112° Southeast 518 596 37,000  Level FlightAware ADS-B
Tue 08:37:05 AM 37.0060 23.7570 111° Southeast 519 597 37,000  Level FlightAware ADS-B
Tue 08:37:49 AM 36.9690 23.8790 111° Southeast 519 597 37,000  Level FlightAware ADS-B
Tue 08:38:33 AM 36.9310 24.0030 111° Southeast 519 597 37,000  Level FlightAware ADS-B
Tue 08:39:13 AM 36.8970 24.1140 111° Southeast 520 598 37,000  Level FlightAware ADS-B
Tue 08:39:55 AM 36.8610 24.2320 111° Southeast 521 600 37,000  Level FlightAware ADS-B
Tue 08:40:35 AM 36.8270 24.3450 111° Southeast 520 598 37,000  Level FlightAware ADS-B
Tue 08:41:21 AM 36.7870 24.4760 111° Southeast 520 598 37,000  Level FlightAware ADS-B
Tue 08:42:01 AM 36.7530 24.5850 111° Southeast 516 594 37,000  Level FlightAware ADS-B
Tue 08:42:45 AM 36.7090 24.7040 115° Southeast 514 592 37,000  Level FlightAware ADS-B
Tue 08:43:27 AM 36.6670 24.8150 115° Southeast 515 593 37,000  Level FlightAware ADS-B
Tue 08:44:07 AM 36.6270 24.9250 114° Southeast 515 593 37,000  Level FlightAware ADS-B
Tue 08:44:51 AM 36.5840 25.0430 114° Southeast 516 594 37,000  Level FlightAware ADS-B
Tue 08:45:31 AM 36.5440 25.1510 115° Southeast 517 595 37,000  Level FlightAware ADS-B
Tue 08:46:07 AM 36.5090 25.2480 114° Southeast 518 596 37,000  Level FlightAware ADS-B
Tue 08:46:57 AM 36.4580 25.3830 115° Southeast 520 598 37,000  Level FlightAware ADS-B
Tue 08:47:35 AM 36.4190 25.4890 115° Southeast 521 600 37,000  Level FlightAware ADS-B
Tue 08:48:21 AM 36.3740 25.6110 115° Southeast 522 601 37,000  Level FlightAware ADS-B
Tue 08:49:01 AM 36.3320 25.7210 115° Southeast 522 601 37,000  Level FlightAware ADS-B
Tue 08:49:39 AM 36.2930 25.8250 115° Southeast 522 601 37,000  Level FlightAware ADS-B
Tue 08:50:27 AM 36.2440 25.9540 115° Southeast 522 601 37,000  Level FlightAware ADS-B
Tue 08:51:07 AM 36.2030 26.0630 115° Southeast 521 600 37,000  Level FlightAware ADS-B
Tue 08:51:51 AM 36.1580 26.1800 115° Southeast 521 600 37,000  Level FlightAware ADS-B
Tue 08:52:33 AM 36.1140 26.2950 115° Southeast 520 598 37,000  Level FlightAware ADS-B
Tue 08:53:09 AM 36.0770 26.3900 116° Southeast 519 597 37,000  Level FlightAware ADS-B
Tue 08:53:57 AM 36.0280 26.5200 115° Southeast 519 597 37,000  Level FlightAware ADS-B
Tue 08:54:35 AM 35.9880 26.6220 116° Southeast 519 597 37,000  Level FlightAware ADS-B
Tue 08:55:21 AM 35.9410 26.7440 115° Southeast 520 598 37,000  Level FlightAware ADS-B
Tue 08:56:15 AM 35.8910 26.8740 115° Southeast 521 600 37,000  Level FlightAware ADS-B
Tue 08:57:01 AM 35.8510 26.9790 115° Southeast 521 600 37,000  Level FlightAware ADS-B
Tue 08:57:38 AM 35.8190 27.0640 115° Southeast 521 600 37,000  Level FlightAware ADS-B
Tue 08:58:15 AM 35.7870 27.1490 115° Southeast 521 600 37,000  Level FlightAware ADS-B
Tue 08:59:03 AM 35.7450 27.2580 115° Southeast 521 600 37,000  Level FlightAware ADS-B
Tue 08:59:48 AM 35.7060 27.3610 115° Southeast 521 600 37,000  Level FlightAware ADS-B
Tue 09:00:25 AM 35.6200 27.5590 118° Southeast 524 603 37,000  Level FlightAware ADS-B
Tue 09:01:26 AM 35.5710 27.6860 115° Southeast 525 604 37,000  Level FlightAware ADS-B
Tue 09:02:01 AM 35.5400 27.7660 115° Southeast 525 604 37,000  Level FlightAware ADS-B
Tue 09:02:51 AM 35.4960 27.8810 115° Southeast 525 604 37,000  Level FlightAware ADS-B
Tue 09:03:29 AM 35.4190 28.0570 118° Southeast 529 609 37,000  Level FlightAware ADS-B
Tue 09:04:09 AM 35.3760 28.1620 117° Southeast 530 610 37,000  Level FlightAware ADS-B
Tue 09:04:53 AM 35.3270 28.2840 116° Southeast 530 610 37,000  Level FlightAware ADS-B
Tue 09:05:35 AM 35.2800 28.3980 117° Southeast 530 610 37,000  Level FlightAware ADS-B
Tue 09:06:17 AM 35.2340 28.5100 117° Southeast 529 609 37,000  Level FlightAware ADS-B
Tue 09:07:01 AM 35.1860 28.6280 116° Southeast 530 610 37,000  Level FlightAware ADS-B
Tue 09:07:51 AM 35.1370 28.7450 117° Southeast 530 610 37,000  Level FlightAware ADS-B
Tue 09:08:31 AM 35.1000 28.8370 116° Southeast 530 610 37,000  Level FlightAware ADS-B
Tue 09:09:20 AM 35.0350 28.9930 117° Southeast 530 610 37,000  Level FlightAware ADS-B
Tue 09:09:59 AM 34.9900 29.1020 117° Southeast 531 611 37,000  Level FlightAware ADS-B
Tue 09:10:58 AM 34.9330 29.2420 116° Southeast 531 611 37,000  Level FlightAware ADS-B
Tue 09:11:54 AM 34.8710 29.3870 117° Southeast 532 612 37,000  Level FlightAware ADS-B
Tue 09:12:25 AM 34.8450 29.4480 117° Southeast 532 612 37,000  Level FlightAware ADS-B
Tue 09:13:23 AM 34.7630 29.6420 117° Southeast 534 615 37,000  Level FlightAware ADS-B
Tue 09:14:08 AM 34.7150 29.7530 118° Southeast 530 610 37,000  Level FlightAware ADS-B
Tue 09:14:48 AM 34.6640 29.8700 118° Southeast 531 611 37,000  Level FlightAware ADS-B
Tue 09:17:00 AM 34.5000 30.2002 121° Southeast  Level Estimated
Tue 09:17:25 AM 34.4800 30.2670 121° Southeast 532 612 37,000  Level FlightAware ADS-B
Tue 09:18:05 AM 34.4240 30.3820 121° Southeast 528 608 37,000  Level FlightAware ADS-B
Tue 09:18:50 AM 34.3680 30.4970 121° Southeast 528 608 37,000  Level FlightAware ADS-B
Tue 09:19:31 AM 34.3180 30.5990 121° Southeast 528 608 37,000  Level FlightAware ADS-B
Tue 09:20:26 AM 34.2620 30.7160 120° Southeast 527 606 37,000  Level FlightAware ADS-B
Tue 09:21:06 AM 34.1990 30.8440 121° Southeast 526 605 37,000  Level FlightAware ADS-B
Tue 09:21:51 AM 34.1550 30.9350 120° Southeast 524 603 37,000  Level FlightAware ADS-B
Tue 09:22:34 AM 34.0930 31.0610 121° Southeast 524 603 37,000  Level FlightAware ADS-B
Tue 09:23:32 AM 34.0190 31.2120 121° Southeast 522 601 37,000  Level FlightAware ADS-B
Tue 09:24:07 AM 33.9730 31.3060 121° Southeast 521 600 37,000  Level FlightAware ADS-B
Tue 09:24:52 AM 33.9180 31.4180 121° Southeast 520 598 37,000  Level FlightAware ADS-B
Tue 09:25:32 AM 33.8690 31.5160 121° Southeast 519 597 37,000  Level FlightAware ADS-B
Tue 09:26:33 AM 33.7910 31.6740 121° Southeast 519 597 37,000  Level FlightAware ADS-B
Tue 09:27:09 AM 33.7470 31.7610 121° Southeast 518 596 37,000  Level FlightAware ADS-B
Tue 09:27:54 AM 33.6920 31.8730 121° Southeast 517 595 37,000  Level FlightAware ADS-B
Tue 09:28:35 AM 33.6410 31.9750 121° Southeast 517 595 37,000  Level FlightAware ADS-B
Tue 09:29:15 AM 33.5930 32.0700 121° Southeast 515 593 37,000  Level FlightAware ADS-B
Tue 09:29:55 AM 33.5430 32.1710 121° Southeast 515 593 37,000  Level FlightAware ADS-B
Tue 09:31:28 AM 33.4420 32.3750 121° Southeast 516 594 37,000  Level FlightAware ADS-B
Tue 09:32:24 AM 33.3660 32.5250 121° Southeast 516 594 37,000  Level FlightAware ADS-B
Tue 09:34:00 AM 33.2450 32.7650 121° Southeast 510 587 37,000 -261 Level FlightAware ADS-B
Tue 09:34:42 AM 33.1890 32.8740 122° Southeast 505 581 36,400 -1,537 Descending FlightAware ADS-B
Tue 09:35:22 AM 33.1460 32.9580 121° Southeast 504 580 34,900 -2,828 Descending FlightAware ADS-B
Tue 09:37:19 AM 33.0010 33.2450 121° Southeast 509 586 29,000 -2,687 Descending FlightAware ADS-B
Tue 09:38:05 AM 32.9720 33.3690 106° East 510 587 27,600 -1,483 Descending FlightAware ADS-B
Tue 09:38:48 AM 32.9550 33.4830 100° East 454 522 26,800 -1,012 Descending FlightAware ADS-B
Tue 09:39:28 AM 32.9400 33.5770 101° East 422 486 26,200 -987 Descending FlightAware ADS-B
Tue 09:40:07 AM 32.9260 33.6630 101° East 402 463 25,500 -1,244 Descending FlightAware ADS-B
Tue 09:40:50 AM 32.9130 33.7400 101° East 392 451 24,500 -1,765 Descending FlightAware ADS-B
Tue 09:41:32 AM 32.8900 33.8390 105° East 382 440 23,000 -2,100 Descending FlightAware ADS-B
Tue 09:41:50 AM 32.8690 33.8700 129° Southeast 374 430 22,400 -1,862 Descending FlightAware ADS-B
Tue 09:42:30 AM 32.8080 33.9060 154° Southeast 362 417 21,200 -1,663 Descending FlightAware ADS-B
Tue 09:43:13 AM 32.7420 33.9340 160° South 357 411 20,100 -1,571 Descending FlightAware ADS-B
Tue 09:43:54 AM 32.6770 33.9600 161° South 347 399 19,000 -1,553 Descending FlightAware ADS-B
Tue 09:44:38 AM 32.6100 33.9860 162° South 342 394 17,900 -1,500 Descending FlightAware ADS-B
Tue 09:44:58 AM 32.5800 33.9980 161° South 337 388 17,400 -1,800 Descending FlightAware ADS-B
Tue 09:45:28 AM 32.5370 34.0140 163° South 340 391 16,400 -2,975 Descending FlightAware ADS-B
Tue 09:46:57 AM 32.4050 34.0620 163° South 398 458 11,500 -2,762 Descending FlightAware ADS-B
Tue 09:47:34 AM 32.3300 34.0950 160° South 361 415 10,600 -720 Descending FlightAware ADS-B
Tue 09:48:12 AM 32.2840 34.1300 147° Southeast 361 415 10,600  Level FlightAware ADS-B
Tue 09:49:01 AM 32.2260 34.1750 147° Southeast 361 415 10,600 -1,471 Level FlightAware ADS-B
Tue 09:49:54 AM 32.2760 34.3130 67° East 283 326 8,100 -2,746 Descending FlightAware ADS-B
Tue 09:50:00 AM 32.2750 34.3230 97° East 283 326 7,900 -947 Descending FlightAware ADS-B
Tue 09:50:32 AM 32.2720 34.3520 97° East 282 325 7,500 -414 Descending FlightAware ADS-B
Tue 09:50:58 AM 32.2690 34.3860 96° East 282 325 7,500  Level FlightAware ADS-B
Tue 09:53:00 AM 32.1006 34.6713 125° Southeast  Level FlightAware Approximate
Tue 09:54:00 AM 32.0290 34.8184 125° Southeast  Level FlightAware Approximate
Tue 09:55:00 AM 32.0000 34.8667 125° Southeast  Level FlightAware Approximate
Tue 09:56:00 AM 32.0095 34.8769 125° Southeast  Level Estimated
Tue 09:57:00 AM 32.0095 34.8769 125° Southeast  Level Estimated
Tue 09:58:00 AM 32.0095 34.8769 125° Southeast  Level Estimated
Tue 09:59:00 AM 32.0095 34.8769 125° Southeast  Level Estimated
Tue 10:00:00 AM 32.0095 34.8769 125° Southeast  Level Estimated
Tue 10:01:00 AM 32.0095 34.8769 125° Southeast  Level Estimated
Tue 10:02:00 AM 32.0095 34.8769 125° Southeast  Level Estimated
Tue 10:03:00 AM 32.0095 34.8769 125° Southeast  Level Estimated

Login

Don't have an account? Register now (free) for customized features, flight alerts, and more!